Marshall, Nebraska
Current Conditions -  °F | °C
As of 8:53 PM on Tuesday 25 Nov 2014 (Local Time) from KHSI Reporting Station
Overcast Overcast  
Wind Chill: 37°   Ceiling: 5500
Heat Index: 42°   Visibility: 10mi
Dew Point: 22°   Wind: 9mph
Humidity: 45%   Direction: 250°WSW
Pressure: 29.85"   Gusts: NA
Location:  40.4815°N, 97.9942°W
Report Text: KHSI 260253Z AUTO 25008KT 10SM OVC055 06/M06 A2985 RMK AO2 SLP125 T00561056 56003
Loading
Personal Weather Stations






























Interactive Weather Map New forecast layout! Learn more

10-Day Weather Forecast

Advertisements
Track Severe Weather on mobile